Lawson Army Air Field (Fort Benning)
KLSF : now visible

Airfield :











YOU CAN JOIN US ON...

 
LOGIN :

Register | Disclaimer

   EN    FR    IT 

 









Legend :    VFR   Marginal VFR   IFR   Intensive IFR   Very Intensive IFR
Visi :
Ceiling :
>= 8 km
>= 3000ft
5 to 8 km
1000 to 3000 ft
1500m to 5 km
500 to 1000 ft
800 to 1500m
200 to 500 ft
< 800m
< 200 ft
Symbols :   Thunderstorms  Fog  Heavy snow  Heavy precipitations  Wind > 20 kt






- Airport Elevation : 232 ft


KLSF - Lawson Army Air Field (Fort Benning)

CURRENT METAR :
  • 231456Z AUTO 00000KT 10SM FEW220 05/02 A3032 RMK AO2 SLP274 T00540017 51009 $

EXPIRED METARs :
  • 231356Z AUTO 00000KT 10SM BKN110 02/01 A3032 RMK AO2 SLP274 T00220007 $
  • 231256Z AUTO 00000KT 10SM SCT110 OVC200 00/M01 A3032 RMK AO2 SLP274 T00031006 $
  • 231231Z AUTO 00000KT 4SM BR OVC210 00/M01 A3031 RMK AO2 SLP271 $
  • 231226Z AUTO 00000KT 1 3/8SM BR OVC210 00/M01 A3030 RMK AO2 VIS 3/8V1 3/8 SLP268 $
  • 231221Z AUTO 00000KT 3/8SM R33/3000V4500FT FZFG OVC210 00/M01 A3030 RMK AO2 SLP268 $
  • 231206Z AUTO 00000KT 1/2SM R33/2600V3500FT FZFG SCT000 OVC210 00/M01 A3030 RMK AO2 SLP268 $

TAF TAF KLSF
Valid from the 22 at 17:00 until the 23 at 23:00 UTC


221700Z 2217/2323 VRB06KT 9999 SKC QNH3023INS
BECMG 2305/2306 VRB06KT 3200 BR SKC QNH3036INS
TEMPO 2306/2309 1600 BR
BECMG 2311/2312 VRB06KT 9999 NSW SKC QNH3021INS TX12/2221Z TN01/2312Z



MET'MAP, your aeronautical weather chart ! - Copyright ORBIFLY December 2007 - Disclaimer

ORBIFLY MET'MAP TEAM :

Programming & Development : Alexandra Zaïnal
Concept & original design : Baudouin d'Aumeries
Assistance for programming : Marc-Olivier Méhu
Technical & hardware support : Manuel Goepfert

Contact : metmap@orbifly.com




SOURCES & CREDITS :

   NOAA       Earth
Advisory